createdAt,value
2023-08-09T00:00:33.701Z,1.60
2023-08-09T00:03:01.796Z,1.77
2023-08-09T00:05:29.504Z,1.85
2023-08-09T00:07:56.831Z,1.60
2023-08-09T00:10:24.509Z,1.62
2023-08-09T00:12:52.431Z,1.70
2023-08-09T00:15:19.815Z,1.70
2023-08-09T00:17:47.750Z,1.67
2023-08-09T00:20:16.060Z,1.50
2023-08-09T00:22:44.079Z,1.73
2023-08-09T00:25:14.965Z,1.67
2023-08-09T00:27:43.525Z,1.55
2023-08-09T00:30:11.685Z,1.60
2023-08-09T00:32:40.439Z,1.58
2023-08-09T00:35:08.460Z,1.80
2023-08-09T00:37:36.887Z,1.75
2023-08-09T00:40:13.914Z,1.60
2023-08-09T00:42:42.460Z,1.75
2023-08-09T00:45:10.650Z,1.60
2023-08-09T00:47:38.539Z,1.52
2023-08-09T00:50:06.620Z,1.73
2023-08-09T00:52:34.438Z,1.62
2023-08-09T00:55:02.324Z,1.80
2023-08-09T00:57:31.503Z,1.70
2023-08-09T00:59:59.526Z,1.75
2023-08-09T01:02:27.218Z,1.63
2023-08-09T01:04:54.827Z,1.75
2023-08-09T01:07:32.561Z,1.80
2023-08-09T01:10:16.744Z,1.35
2023-08-09T01:12:51.348Z,1.70
2023-08-09T01:15:21.089Z,1.62
2023-08-09T01:17:50.019Z,1.70
2023-08-09T01:20:18.360Z,1.60
2023-08-09T01:22:52.035Z,1.58
2023-08-09T01:25:20.086Z,1.98
2023-08-09T01:27:50.130Z,1.62
2023-08-09T01:30:17.621Z,1.60
2023-08-09T01:32:45.425Z,1.70
2023-08-09T01:35:13.125Z,1.73
2023-08-09T01:37:48.357Z,1.50
2023-08-09T01:40:17.300Z,1.70
2023-08-09T01:42:44.990Z,1.70
2023-08-09T01:45:13.409Z,1.60
2023-08-09T01:47:43.008Z,1.85
2023-08-09T01:50:22.019Z,1.62
2023-08-09T01:52:50.179Z,1.80
2023-08-09T01:55:19.329Z,1.50
2023-08-09T01:57:48.149Z,1.87
2023-08-09T02:00:20.515Z,1.70
2023-08-09T02:02:49.830Z,1.55
2023-08-09T02:05:17.893Z,1.70
2023-08-09T02:07:45.355Z,1.55
2023-08-09T02:10:13.558Z,1.70
2023-08-09T02:12:41.728Z,1.33
2023-08-09T02:15:09.906Z,1.50
2023-08-09T02:17:37.926Z,1.65
2023-08-09T02:20:08.048Z,1.50
2023-08-09T02:22:38.820Z,1.50
2023-08-09T02:25:08.293Z,1.50
2023-08-09T02:27:35.841Z,1.60
2023-08-09T02:30:04.684Z,1.58
2023-08-09T02:32:35.259Z,1.60
2023-08-09T02:35:03.865Z,1.70
2023-08-09T02:37:31.843Z,1.52
2023-08-09T02:40:00.475Z,1.70
2023-08-09T02:42:28.011Z,1.40
2023-08-09T02:44:55.774Z,1.60
2023-08-09T02:47:23.335Z,1.80
2023-08-09T02:49:51.307Z,1.73
2023-08-09T02:52:20.466Z,1.65
2023-08-09T02:54:48.872Z,1.90
2023-08-09T02:57:16.624Z,1.60
2023-08-09T02:59:44.418Z,1.50
2023-08-09T03:02:11.906Z,1.50
2023-08-09T03:04:39.561Z,1.60
2023-08-09T03:07:07.261Z,1.65
2023-08-09T03:09:36.038Z,1.60
2023-08-09T03:12:03.883Z,1.50
2023-08-09T03:14:31.655Z,1.60
2023-08-09T03:16:59.143Z,1.62
2023-08-09T03:19:27.069Z,1.52
2023-08-09T03:21:54.782Z,1.53
2023-08-09T03:24:22.287Z,1.90
2023-08-09T03:26:49.863Z,1.80
2023-08-09T03:29:17.741Z,1.73
2023-08-09T03:31:46.050Z,1.75
2023-08-09T03:34:13.739Z,1.50
2023-08-09T03:36:41.510Z,1.70
2023-08-09T03:39:09.283Z,1.53
2023-08-09T03:41:36.726Z,1.65
2023-08-09T03:44:05.354Z,1.70
2023-08-09T03:46:33.024Z,1.90
2023-08-09T03:49:02.256Z,1.83
2023-08-09T03:51:30.845Z,1.60
2023-08-09T03:53:58.532Z,2.00
2023-08-09T03:56:26.080Z,1.75
2023-08-09T03:58:53.871Z,2.00
2023-08-09T04:01:21.532Z,1.80
2023-08-09T04:03:49.378Z,1.80
2023-08-09T04:06:16.809Z,1.77
2023-08-09T04:08:45.242Z,1.67
2023-08-09T04:11:13.055Z,1.70
2023-08-09T04:13:42.455Z,1.77
2023-08-09T04:16:10.902Z,1.60
2023-08-09T04:18:39.197Z,1.60
2023-08-09T04:21:08.024Z,1.50
2023-08-09T04:23:35.503Z,1.67
2023-08-09T04:26:04.674Z,1.67
2023-08-09T04:28:32.193Z,2.10
2023-08-09T04:30:59.629Z,1.67
2023-08-09T04:33:28.185Z,1.50
2023-08-09T04:35:55.594Z,1.50
2023-08-09T04:38:23.078Z,1.80
2023-08-09T04:40:50.801Z,1.75
2023-08-09T04:43:18.477Z,1.80
2023-08-09T04:45:45.993Z,1.80
2023-08-09T04:48:18.383Z,2.00
2023-08-09T04:50:45.992Z,1.80
2023-08-09T04:53:13.708Z,2.10
2023-08-09T04:55:41.190Z,1.83
2023-08-09T04:58:09.389Z,1.87
2023-08-09T05:00:37.186Z,1.60
2023-08-09T05:03:06.177Z,1.90
2023-08-09T05:05:33.686Z,1.60
2023-08-09T05:08:01.430Z,1.90
2023-08-09T05:10:28.861Z,1.85
2023-08-09T05:12:56.554Z,1.80
2023-08-09T05:15:24.344Z,1.77
2023-08-09T05:17:51.803Z,2.00
2023-08-09T05:20:19.285Z,1.90
2023-08-09T05:22:47.014Z,1.90
2023-08-09T05:25:14.484Z,1.92
2023-08-09T05:27:41.965Z,1.87
2023-08-09T05:30:10.125Z,2.20
2023-08-09T05:32:37.642Z,2.17
2023-08-09T05:35:05.576Z,2.05
2023-08-09T05:37:33.397Z,1.80
2023-08-09T05:40:00.795Z,2.00
2023-08-09T05:42:28.247Z,2.35
2023-08-09T05:44:56.010Z,2.30
2023-08-09T05:47:23.610Z,2.17
2023-08-09T05:49:51.426Z,2.10
2023-08-09T05:52:19.158Z,2.30
2023-08-09T05:54:49.438Z,2.70
2023-08-09T05:57:17.149Z,2.58
2023-08-09T05:59:44.920Z,2.20
2023-08-09T06:02:12.376Z,2.97
2023-08-09T06:04:40.151Z,2.72
2023-08-09T06:07:08.336Z,2.85
2023-08-09T06:09:35.785Z,2.60
2023-08-09T06:12:06.887Z,2.60
2023-08-09T06:14:35.015Z,2.60
2023-08-09T06:17:03.347Z,2.30
2023-08-09T06:19:31.241Z,2.50
2023-08-09T06:21:58.935Z,2.55
2023-08-09T06:24:26.635Z,2.25
2023-08-09T06:26:55.589Z,2.40
2023-08-09T06:29:23.101Z,2.20
2023-08-09T06:31:51.641Z,2.30
2023-08-09T06:34:19.360Z,1.92
2023-08-09T06:36:46.864Z,1.90
2023-08-09T06:39:14.603Z,2.10
2023-08-09T06:41:42.080Z,1.90
2023-08-09T06:44:09.520Z,1.70
2023-08-09T06:46:38.604Z,1.90
2023-08-09T06:49:06.097Z,1.90
2023-08-09T06:51:33.550Z,1.83
2023-08-09T06:54:01.220Z,2.40
2023-08-09T06:56:28.901Z,1.70
2023-08-09T06:58:56.702Z,1.65
2023-08-09T07:01:24.433Z,2.00
2023-08-09T07:03:52.069Z,2.10
2023-08-09T07:06:19.836Z,2.20
2023-08-09T07:08:47.608Z,2.00
2023-08-09T07:11:15.879Z,2.00
2023-08-09T07:13:43.337Z,1.98
2023-08-09T07:16:11.019Z,1.90
2023-08-09T07:18:38.692Z,1.90
2023-08-09T07:21:06.214Z,2.17
2023-08-09T07:23:47.292Z,2.55
2023-08-09T07:26:21.330Z,2.00
2023-08-09T07:28:49.093Z,2.10
2023-08-09T07:31:21.837Z,2.30
2023-08-09T07:33:50.231Z,2.10
2023-08-09T07:36:18.221Z,2.20
2023-08-09T07:38:45.677Z,2.05
2023-08-09T07:41:13.801Z,2.00
2023-08-09T07:43:41.254Z,1.73
2023-08-09T07:46:08.795Z,1.83
2023-08-09T07:48:36.559Z,2.00
2023-08-09T07:51:04.256Z,1.98
2023-08-09T07:53:31.976Z,1.77
2023-08-09T07:55:59.708Z,1.62
2023-08-09T07:58:27.183Z,1.73
2023-08-09T08:00:54.636Z,1.70
2023-08-09T08:03:22.328Z,1.87
2023-08-09T08:05:51.242Z,1.67
2023-08-09T08:08:21.220Z,1.58
2023-08-09T08:10:49.007Z,1.90
2023-08-09T08:13:16.823Z,1.60
2023-08-09T08:15:44.732Z,1.90
2023-08-09T08:18:12.900Z,1.80
2023-08-09T08:20:40.304Z,2.05
2023-08-09T08:23:07.872Z,1.87
2023-08-09T08:25:35.681Z,1.80
2023-08-09T08:28:03.289Z,1.90
2023-08-09T08:30:30.860Z,1.92
2023-08-09T08:32:58.654Z,1.60
2023-08-09T08:35:34.998Z,1.90
2023-08-09T08:38:03.684Z,1.70
2023-08-09T08:40:32.437Z,1.92
2023-08-09T08:43:00.457Z,8.98
2023-08-09T08:45:28.229Z,13.73
2023-08-09T08:47:55.674Z,21.40
2023-08-09T08:50:26.401Z,17.23
2023-08-09T08:52:54.690Z,5.72
2023-08-09T08:55:23.255Z,2.75
2023-08-09T08:57:50.689Z,2.47
2023-08-09T09:02:49.272Z,1.80
2023-08-09T09:05:17.990Z,1.73
2023-08-09T09:07:47.763Z,1.70
2023-08-09T09:10:15.262Z,1.55
2023-08-09T09:12:43.157Z,1.53
2023-08-09T09:15:11.037Z,1.55
2023-08-09T09:17:43.303Z,1.50
2023-08-09T09:20:40.765Z,1.27
2023-08-09T09:23:09.164Z,1.52
2023-08-09T09:25:36.921Z,1.60
2023-08-09T09:28:04.659Z,1.40
2023-08-09T09:30:33.504Z,1.58
2023-08-09T09:33:04.435Z,1.77
2023-08-09T09:35:33.608Z,1.60
2023-08-09T09:38:05.224Z,1.60
2023-08-09T09:40:36.198Z,1.60
2023-08-09T09:43:05.721Z,1.40
2023-08-09T09:45:34.294Z,1.13
2023-08-09T09:48:03.320Z,1.40
2023-08-09T09:50:33.111Z,1.20
2023-08-09T09:53:01.075Z,1.02
2023-08-09T09:55:30.128Z,0.90
2023-08-09T09:57:59.290Z,0.80
2023-08-09T10:00:28.902Z,1.00
2023-08-09T10:02:57.852Z,1.00
2023-08-09T10:05:44.722Z,0.90
2023-08-09T10:08:15.295Z,0.90
2023-08-09T10:10:44.953Z,0.80
2023-08-09T10:13:17.277Z,0.77
2023-08-09T10:15:48.501Z,1.00
2023-08-09T10:18:30.384Z,0.80
2023-08-09T10:20:59.751Z,0.80
2023-08-09T10:23:30.218Z,0.90
2023-08-09T10:25:58.141Z,0.70
2023-08-09T10:28:45.675Z,0.70
2023-08-09T10:31:19.278Z,0.80
2023-08-09T10:34:11.692Z,0.80
2023-08-09T10:36:39.476Z,0.57
2023-08-09T10:39:15.754Z,0.70
2023-08-09T10:42:06.467Z,0.80
2023-08-09T10:44:34.296Z,0.80
2023-08-09T10:47:04.922Z,0.82
2023-08-09T10:49:45.965Z,0.70
2023-08-09T10:52:19.239Z,0.67
2023-08-09T10:55:27.550Z,0.68
2023-08-09T10:57:57.219Z,0.60
2023-08-09T11:00:25.939Z,0.62
2023-08-09T11:02:58.174Z,0.73
2023-08-09T11:05:28.563Z,0.70
2023-08-09T11:07:58.202Z,0.70
2023-08-09T11:10:38.878Z,0.60
2023-08-09T11:13:10.589Z,0.73
2023-08-09T11:15:39.182Z,0.53
2023-08-09T11:18:07.451Z,0.80
2023-08-09T11:20:35.592Z,0.70
2023-08-09T11:23:04.807Z,0.70
2023-08-09T11:25:33.474Z,0.50
2023-08-09T11:28:04.974Z,0.60
2023-08-09T11:30:33.953Z,0.70
2023-08-09T11:33:06.713Z,0.63
2023-08-09T11:35:46.487Z,0.70
2023-08-09T11:38:16.577Z,0.60
2023-08-09T11:40:52.925Z,0.82
2023-08-09T11:43:21.877Z,0.70
2023-08-09T11:45:56.529Z,0.80
2023-08-09T11:48:32.804Z,0.75
2023-08-09T11:51:23.850Z,0.70
2023-08-09T11:53:51.976Z,0.70
2023-08-09T11:56:21.391Z,0.75
2023-08-09T11:58:57.014Z,0.70
2023-08-09T12:01:29.482Z,0.60
2023-08-09T12:03:59.511Z,0.70
2023-08-09T12:06:43.844Z,0.80
2023-08-09T12:09:27.920Z,0.70
2023-08-09T12:11:55.653Z,0.63
2023-08-09T12:14:23.789Z,0.77
2023-08-09T12:16:51.333Z,0.80
2023-08-09T12:19:18.794Z,0.80
2023-08-09T12:21:46.550Z,0.80
2023-08-09T12:24:15.002Z,0.73
2023-08-09T12:26:43.040Z,0.90
2023-08-09T12:29:11.033Z,0.80
2023-08-09T12:31:39.406Z,1.00
2023-08-09T12:34:09.363Z,1.05
2023-08-09T12:36:37.115Z,1.15
2023-08-09T12:39:05.162Z,1.00
2023-08-09T12:41:32.586Z,0.98
2023-08-09T12:44:00.262Z,0.80
2023-08-09T12:46:28.052Z,0.90
2023-08-09T12:48:55.582Z,0.83
2023-08-09T12:51:23.568Z,0.90
2023-08-09T12:53:51.050Z,0.80
2023-08-09T12:56:18.775Z,0.90
2023-08-09T12:58:46.588Z,0.90
2023-08-09T13:01:15.469Z,0.90
2023-08-09T13:03:42.989Z,0.85
2023-08-09T13:06:11.528Z,0.80
2023-08-09T13:08:38.986Z,0.82
2023-08-09T13:11:06.612Z,0.73
2023-08-09T13:13:34.440Z,0.80
2023-08-09T13:16:03.343Z,0.73
2023-08-09T13:18:31.284Z,0.90
2023-08-09T13:20:59.396Z,0.85
2023-08-09T13:23:26.829Z,0.90
2023-08-09T13:25:55.124Z,0.88
2023-08-09T13:28:23.081Z,0.80
2023-08-09T13:30:50.626Z,0.80
2023-08-09T13:33:18.309Z,0.80
2023-08-09T13:35:46.622Z,0.80
2023-08-09T13:38:32.932Z,0.95
2023-08-09T13:41:00.982Z,1.10
2023-08-09T13:43:28.678Z,1.05
2023-08-09T13:45:56.193Z,0.90
2023-08-09T13:48:24.149Z,1.00
2023-08-09T13:50:51.921Z,0.90
2023-08-09T13:53:19.650Z,1.00
2023-08-09T13:55:47.721Z,0.90
2023-08-09T13:58:16.560Z,0.90
2023-08-09T14:00:44.058Z,1.02
2023-08-09T14:03:12.526Z,0.93
2023-08-09T14:05:40.154Z,1.00
2023-08-09T14:08:08.789Z,0.70
2023-08-09T14:10:36.524Z,0.85
2023-08-09T14:13:04.110Z,0.90
2023-08-09T14:15:31.931Z,1.00
2023-08-09T14:18:00.099Z,0.73
2023-08-09T14:20:27.845Z,0.80
2023-08-09T14:22:55.431Z,0.98
2023-08-09T14:25:27.236Z,1.00
2023-08-09T14:27:54.794Z,1.00
2023-08-09T14:30:22.577Z,0.90
2023-08-09T14:32:51.015Z,0.90
2023-08-09T14:35:21.338Z,1.00
2023-08-09T14:37:49.310Z,1.00
2023-08-09T14:40:17.219Z,1.05
2023-08-09T14:42:45.169Z,1.00
2023-08-09T14:45:13.237Z,1.08
2023-08-09T14:47:41.696Z,0.88
2023-08-09T14:50:10.101Z,1.00
2023-08-09T14:52:38.434Z,1.05
2023-08-09T14:55:08.985Z,1.00
2023-08-09T14:57:37.756Z,1.20
2023-08-09T15:00:11.052Z,0.95
2023-08-09T15:02:41.121Z,1.00
2023-08-09T15:05:10.601Z,0.90
2023-08-09T15:07:38.318Z,1.02
2023-08-09T15:10:07.341Z,1.20
2023-08-09T15:12:35.992Z,1.10
2023-08-09T15:15:05.651Z,1.02
2023-08-09T15:17:34.809Z,1.10
2023-08-09T15:20:03.529Z,0.90
2023-08-09T15:22:31.140Z,0.90
2023-08-09T15:25:00.945Z,1.10
2023-08-09T15:27:28.905Z,0.93
2023-08-09T15:29:57.363Z,1.10
2023-08-09T15:32:25.268Z,1.10
2023-08-09T15:34:53.151Z,1.10
2023-08-09T15:37:20.796Z,1.05
2023-08-09T15:39:48.713Z,1.00
2023-08-09T15:42:18.765Z,1.20
2023-08-09T15:44:49.410Z,1.23
2023-08-09T15:47:19.772Z,1.20
2023-08-09T15:49:48.925Z,1.30
2023-08-09T15:52:19.465Z,1.10
2023-08-09T15:54:47.319Z,1.00
2023-08-09T15:57:15.567Z,1.15
2023-08-09T15:59:46.790Z,1.27
2023-08-09T16:02:15.388Z,1.00
2023-08-09T16:04:43.825Z,1.10
2023-08-09T16:07:13.141Z,1.15
2023-08-09T16:09:41.334Z,1.15
2023-08-09T16:12:11.913Z,1.20
2023-08-09T16:14:40.398Z,1.10
2023-08-09T16:17:09.117Z,1.08
2023-08-09T16:19:37.952Z,1.40
2023-08-09T16:22:06.165Z,1.20
2023-08-09T16:24:33.949Z,1.40
2023-08-09T16:27:02.529Z,1.30
2023-08-09T16:29:30.275Z,1.20
2023-08-09T16:31:57.804Z,1.25
2023-08-09T16:34:25.782Z,1.40
2023-08-09T16:36:53.443Z,1.30
2023-08-09T16:39:21.431Z,1.30
2023-08-09T16:41:49.192Z,1.30
2023-08-09T16:44:16.675Z,1.50
2023-08-09T16:46:44.414Z,1.30
2023-08-09T16:49:12.378Z,1.30
2023-08-09T16:51:39.922Z,1.50
2023-08-09T16:54:08.102Z,1.40
2023-08-09T16:56:36.677Z,1.30
2023-08-09T16:59:04.577Z,1.50
2023-08-09T17:01:32.483Z,1.62
2023-08-09T17:04:00.491Z,1.60
2023-08-09T17:06:29.018Z,1.83
2023-08-09T17:08:56.741Z,1.52
2023-08-09T17:11:25.224Z,1.50
2023-08-09T17:13:54.451Z,1.70
2023-08-09T17:16:22.273Z,1.80
2023-08-09T17:18:51.310Z,2.20
2023-08-09T17:21:19.565Z,2.55
2023-08-09T17:23:48.217Z,2.30
2023-08-09T17:26:16.376Z,2.33
2023-08-09T17:28:44.348Z,1.90
2023-08-09T17:31:12.798Z,1.75
2023-08-09T17:33:41.605Z,1.83
2023-08-09T17:36:12.652Z,1.90
2023-08-09T17:38:42.639Z,1.92
2023-08-09T17:41:10.754Z,2.00
2023-08-09T17:43:40.385Z,2.00
2023-08-09T17:46:08.583Z,1.70
2023-08-09T17:48:36.789Z,1.87
2023-08-09T17:51:06.661Z,1.62
2023-08-09T17:53:35.905Z,2.03
2023-08-09T17:56:04.828Z,1.90
2023-08-09T17:58:32.549Z,1.80
2023-08-09T18:01:00.879Z,1.70
2023-08-09T18:03:28.821Z,1.75
2023-08-09T18:05:56.940Z,1.85
2023-08-09T18:08:26.506Z,2.35
2023-08-09T18:10:56.874Z,2.30
2023-08-09T18:13:25.328Z,2.12
2023-08-09T18:15:53.288Z,2.10
2023-08-09T18:18:22.296Z,2.20
2023-08-09T18:20:51.710Z,2.00
2023-08-09T18:23:25.912Z,1.90
2023-08-09T18:25:57.431Z,2.10
2023-08-09T18:28:26.631Z,2.10
2023-08-09T18:30:54.354Z,2.10
2023-08-09T18:33:23.378Z,2.00
2023-08-09T18:35:53.599Z,2.17
2023-08-09T18:38:23.363Z,2.37
2023-08-09T18:40:53.434Z,2.20
2023-08-09T18:43:23.152Z,2.00
2023-08-09T18:45:51.557Z,2.10
2023-08-09T18:48:19.902Z,2.28
2023-08-09T18:50:49.310Z,2.05
2023-08-09T18:53:18.785Z,2.33
2023-08-09T18:55:48.244Z,2.10
2023-08-09T18:58:17.240Z,2.35
2023-08-09T19:00:46.327Z,1.87
2023-08-09T19:03:14.617Z,2.08
2023-08-09T19:05:44.077Z,2.10
2023-08-09T19:08:12.732Z,2.12
2023-08-09T19:10:43.159Z,1.98
2023-08-09T19:13:11.684Z,2.10
2023-08-09T19:15:41.272Z,2.00
2023-08-09T19:18:09.409Z,2.30
2023-08-09T19:20:37.761Z,2.20
2023-08-09T19:23:07.542Z,2.20
2023-08-09T19:25:36.246Z,2.22
2023-08-09T19:28:05.879Z,2.25
2023-08-09T19:30:35.712Z,2.10
2023-08-09T19:33:05.092Z,2.12
2023-08-09T19:35:35.436Z,2.55
2023-08-09T19:38:05.554Z,2.40
2023-08-09T19:40:34.098Z,2.37
2023-08-09T19:43:02.906Z,2.20
2023-08-09T19:45:31.424Z,2.67
2023-08-09T19:48:01.490Z,2.80
2023-08-09T19:50:29.913Z,2.83
2023-08-09T19:52:58.093Z,3.30
2023-08-09T19:55:26.442Z,3.10
2023-08-09T19:57:54.760Z,3.95
2023-08-09T20:00:28.715Z,3.50
2023-08-09T20:02:57.352Z,3.30
2023-08-09T20:05:26.104Z,3.33
2023-08-09T20:07:54.955Z,3.53
2023-08-09T20:10:23.372Z,3.28
2023-08-09T20:12:51.592Z,3.45
2023-08-09T20:15:21.176Z,3.70
2023-08-09T20:17:49.480Z,3.30
2023-08-09T20:20:24.292Z,3.12
2023-08-09T20:22:54.096Z,3.50
2023-08-09T20:25:22.975Z,3.30
2023-08-09T20:27:52.425Z,3.17
2023-08-09T20:30:20.923Z,3.00
2023-08-09T20:32:49.021Z,3.37
2023-08-09T20:35:17.014Z,3.23
2023-08-09T20:37:44.688Z,3.33
2023-08-09T20:40:13.122Z,3.30
2023-08-09T20:42:42.251Z,3.10
2023-08-09T20:45:11.460Z,3.50
2023-08-09T20:47:41.344Z,3.40
2023-08-09T20:50:09.623Z,3.37
2023-08-09T20:52:39.536Z,3.40
2023-08-09T20:55:08.501Z,3.43
2023-08-09T20:57:36.303Z,3.37
2023-08-09T21:00:05.663Z,3.50
2023-08-09T21:02:33.420Z,3.53
2023-08-09T21:05:00.834Z,3.53
2023-08-09T21:07:28.253Z,3.62
2023-08-09T21:09:56.422Z,3.50
2023-08-09T21:12:23.801Z,3.50
2023-08-09T21:14:51.235Z,3.90
2023-08-09T21:17:18.860Z,3.40
2023-08-09T21:19:46.273Z,3.78
2023-08-09T21:22:15.306Z,3.90
2023-08-09T21:27:31.760Z,4.10
2023-08-09T21:30:00.700Z,3.62
2023-08-09T21:32:28.322Z,3.80
2023-08-09T21:34:55.792Z,3.50
2023-08-09T21:37:23.564Z,3.50
2023-08-09T21:39:51.131Z,3.37
2023-08-09T21:42:18.591Z,3.67
2023-08-09T21:44:46.377Z,3.60
2023-08-09T21:47:13.811Z,3.53
2023-08-09T21:49:44.549Z,4.20
2023-08-09T21:52:12.242Z,3.60
2023-08-09T21:54:39.661Z,3.92
2023-08-09T21:57:07.132Z,3.60
2023-08-09T21:59:34.869Z,3.50
2023-08-09T22:02:17.885Z,3.92
2023-08-09T22:04:54.491Z,3.60
2023-08-09T22:07:21.929Z,3.87
2023-08-09T22:09:49.336Z,3.60
2023-08-09T22:12:17.003Z,3.80
2023-08-09T22:14:44.386Z,3.83
2023-08-09T22:17:11.908Z,3.40
2023-08-09T22:19:39.700Z,3.60
2023-08-09T22:24:37.462Z,3.83
2023-08-09T22:27:05.175Z,3.22
2023-08-09T22:29:32.720Z,4.03
2023-08-09T22:32:00.544Z,3.62
2023-08-09T22:34:28.277Z,3.40
2023-08-09T22:36:56.156Z,3.67
2023-08-09T22:39:23.827Z,3.30
2023-08-09T22:41:51.624Z,3.30
2023-08-09T22:44:19.001Z,3.20
2023-08-09T22:46:46.616Z,3.25
2023-08-09T22:49:14.367Z,3.35
2023-08-09T22:51:43.076Z,3.28
2023-08-09T22:54:10.924Z,3.22
2023-08-09T22:56:38.670Z,3.40
2023-08-09T22:59:06.355Z,2.90
2023-08-09T23:01:34.934Z,3.53
2023-08-09T23:04:03.134Z,3.05
2023-08-09T23:06:30.579Z,3.10
2023-08-09T23:08:58.089Z,3.00
2023-08-09T23:11:26.224Z,2.83
2023-08-09T23:13:53.632Z,3.10
2023-08-09T23:16:21.007Z,3.03
2023-08-09T23:18:48.877Z,2.87
2023-08-09T23:21:16.370Z,2.90
2023-08-09T23:23:43.786Z,2.70
2023-08-09T23:26:12.634Z,3.00
2023-08-09T23:28:40.062Z,3.00
2023-08-09T23:31:07.500Z,2.70
2023-08-09T23:33:35.317Z,2.70
2023-08-09T23:36:03.849Z,2.45
2023-08-09T23:38:31.228Z,2.70
2023-08-09T23:40:58.999Z,2.60
2023-08-09T23:43:26.410Z,2.53
2023-08-09T23:45:53.825Z,2.37
2023-08-09T23:48:21.480Z,2.30
2023-08-09T23:50:49.244Z,2.50
2023-08-09T23:53:16.681Z,2.40
2023-08-09T23:55:44.355Z,2.33
2023-08-09T23:58:11.750Z,2.50
